sensor_id;sensor_type;location;lat;lon;timestamp;P1;durP1;ratioP1;P2;durP2;ratioP2
41943;SDS011;27636;52.610;13.244;2022-10-16T00:02:10;8.68;;;2.00;;
41943;SDS011;27636;52.610;13.244;2022-10-16T00:07:14;4.53;;;2.17;;
41943;SDS011;27636;52.610;13.244;2022-10-16T00:12:17;3.80;;;1.80;;
41943;SDS011;27636;52.610;13.244;2022-10-16T00:17:23;5.63;;;2.17;;
41943;SDS011;27636;52.610;13.244;2022-10-16T00:22:26;5.53;;;2.27;;
41943;SDS011;27636;52.610;13.244;2022-10-16T00:27:29;3.20;;;1.80;;
41943;SDS011;27636;52.610;13.244;2022-10-16T00:32:34;4.25;;;1.90;;
41943;SDS011;27636;52.610;13.244;2022-10-16T00:37:37;3.93;;;2.00;;
41943;SDS011;27636;52.610;13.244;2022-10-16T00:42:41;5.30;;;2.30;;
41943;SDS011;27636;52.610;13.244;2022-10-16T00:47:46;4.63;;;2.25;;
41943;SDS011;27636;52.610;13.244;2022-10-16T00:52:52;3.85;;;1.63;;
41943;SDS011;27636;52.610;13.244;2022-10-16T00:57:55;6.60;;;2.15;;
41943;SDS011;27636;52.610;13.244;2022-10-16T01:03:01;3.40;;;1.67;;
41943;SDS011;27636;52.610;13.244;2022-10-16T03:44:38;4.53;;;1.77;;
41943;SDS011;27636;52.610;13.244;2022-10-16T03:49:41;4.28;;;1.90;;
41943;SDS011;27636;52.610;13.244;2022-10-16T03:54:45;3.58;;;1.77;;
41943;SDS011;27636;52.610;13.244;2022-10-16T03:59:50;4.10;;;1.55;;
41943;SDS011;27636;52.610;13.244;2022-10-16T04:04:53;4.57;;;1.70;;
41943;SDS011;27636;52.610;13.244;2022-10-16T04:09:56;3.75;;;1.55;;
41943;SDS011;27636;52.610;13.244;2022-10-16T04:15:02;3.92;;;1.65;;
41943;SDS011;27636;52.610;13.244;2022-10-16T04:20:06;3.55;;;1.55;;
41943;SDS011;27636;52.610;13.244;2022-10-16T04:25:10;3.60;;;1.67;;
41943;SDS011;27636;52.610;13.244;2022-10-16T04:30:15;4.85;;;1.80;;
41943;SDS011;27636;52.610;13.244;2022-10-16T04:35:19;3.45;;;1.45;;
41943;SDS011;27636;52.610;13.244;2022-10-16T04:40:23;3.93;;;1.80;;
41943;SDS011;27636;52.610;13.244;2022-10-16T04:45:28;3.50;;;1.60;;
41943;SDS011;27636;52.610;13.244;2022-10-16T04:50:31;3.10;;;1.55;;
41943;SDS011;27636;52.610;13.244;2022-10-16T04:55:40;7.15;;;1.95;;
41943;SDS011;27636;52.610;13.244;2022-10-16T05:00:46;5.95;;;1.70;;
41943;SDS011;27636;52.610;13.244;2022-10-16T05:05:49;4.97;;;2.00;;
41943;SDS011;27636;52.610;13.244;2022-10-16T05:24:32;6.83;;;2.33;;
41943;SDS011;27636;52.610;13.244;2022-10-16T05:29:35;6.50;;;1.90;;
41943;SDS011;27636;52.610;13.244;2022-10-16T05:34:39;6.13;;;2.08;;
41943;SDS011;27636;52.610;13.244;2022-10-16T05:39:44;3.75;;;1.80;;
41943;SDS011;27636;52.610;13.244;2022-10-16T05:44:47;3.30;;;1.60;;
41943;SDS011;27636;52.610;13.244;2022-10-16T05:49:50;6.43;;;2.65;;
41943;SDS011;27636;52.610;13.244;2022-10-16T06:11:20;5.25;;;2.22;;
41943;SDS011;27636;52.610;13.244;2022-10-16T06:16:25;4.30;;;2.03;;
41943;SDS011;27636;52.610;13.244;2022-10-16T06:21:29;5.70;;;2.17;;
41943;SDS011;27636;52.610;13.244;2022-10-16T06:26:34;5.90;;;2.30;;
41943;SDS011;27636;52.610;13.244;2022-10-16T06:31:37;5.10;;;2.70;;
41943;SDS011;27636;52.610;13.244;2022-10-16T06:36:41;5.03;;;2.33;;
41943;SDS011;27636;52.610;13.244;2022-10-16T06:41:47;5.18;;;2.17;;
41943;SDS011;27636;52.610;13.244;2022-10-16T06:46:51;4.40;;;2.05;;
41943;SDS011;27636;52.610;13.244;2022-10-16T06:51:54;3.45;;;1.80;;
41943;SDS011;27636;52.610;13.244;2022-10-16T06:56:59;4.65;;;2.22;;
41943;SDS011;27636;52.610;13.244;2022-10-16T07:02:04;4.75;;;2.20;;
41943;SDS011;27636;52.610;13.244;2022-10-16T07:07:07;5.00;;;2.20;;
41943;SDS011;27636;52.610;13.244;2022-10-16T07:12:12;4.28;;;1.90;;
41943;SDS011;27636;52.610;13.244;2022-10-16T07:17:15;3.87;;;2.13;;
41943;SDS011;27636;52.610;13.244;2022-10-16T07:22:18;6.45;;;1.95;;
41943;SDS011;27636;52.610;13.244;2022-10-16T07:27:23;8.43;;;2.08;;
41943;SDS011;27636;52.610;13.244;2022-10-16T07:32:27;4.90;;;2.25;;
41943;SDS011;27636;52.610;13.244;2022-10-16T07:37:30;5.30;;;1.90;;
41943;SDS011;27636;52.610;13.244;2022-10-16T07:42:35;3.88;;;2.13;;
41943;SDS011;27636;52.610;13.244;2022-10-16T07:47:38;3.60;;;1.63;;
41943;SDS011;27636;52.610;13.244;2022-10-16T07:52:41;3.00;;;1.70;;
41943;SDS011;27636;52.610;13.244;2022-10-16T07:57:46;4.72;;;1.80;;
41943;SDS011;27636;52.610;13.244;2022-10-16T08:02:49;3.20;;;1.50;;
41943;SDS011;27636;52.610;13.244;2022-10-16T08:07:52;3.35;;;1.60;;
41943;SDS011;27636;52.610;13.244;2022-10-16T08:12:57;5.13;;;1.50;;
41943;SDS011;27636;52.610;13.244;2022-10-16T08:18:02;3.83;;;1.40;;
41943;SDS011;27636;52.610;13.244;2022-10-16T08:23:07;3.60;;;2.08;;
41943;SDS011;27636;52.610;13.244;2022-10-16T08:28:12;3.15;;;1.33;;
41943;SDS011;27636;52.610;13.244;2022-10-16T08:33:16;6.33;;;1.77;;
41943;SDS011;27636;52.610;13.244;2022-10-16T08:38:19;3.10;;;1.50;;
41943;SDS011;27636;52.610;13.244;2022-10-16T08:43:30;2.37;;;1.20;;
41943;SDS011;27636;52.610;13.244;2022-10-16T08:48:46;3.42;;;1.77;;
41943;SDS011;27636;52.610;13.244;2022-10-16T08:53:52;4.10;;;1.40;;
41943;SDS011;27636;52.610;13.244;2022-10-16T08:58:59;6.25;;;1.50;;
41943;SDS011;27636;52.610;13.244;2022-10-16T09:04:16;4.90;;;1.40;;
41943;SDS011;27636;52.610;13.244;2022-10-16T09:09:42;1.98;;;1.08;;
41943;SDS011;27636;52.610;13.244;2022-10-16T09:15:00;2.50;;;1.30;;
41943;SDS011;27636;52.610;13.244;2022-10-16T09:20:13;2.53;;;1.10;;
41943;SDS011;27636;52.610;13.244;2022-10-16T09:25:25;2.28;;;1.17;;
41943;SDS011;27636;52.610;13.244;2022-10-16T09:30:30;2.53;;;1.50;;
41943;SDS011;27636;52.610;13.244;2022-10-16T09:35:35;3.58;;;1.60;;
41943;SDS011;27636;52.610;13.244;2022-10-16T09:40:40;3.95;;;1.40;;
41943;SDS011;27636;52.610;13.244;2022-10-16T09:45:54;2.53;;;1.23;;
41943;SDS011;27636;52.610;13.244;2022-10-16T09:50:59;2.92;;;1.20;;
41943;SDS011;27636;52.610;13.244;2022-10-16T09:56:03;6.82;;;1.63;;
41943;SDS011;27636;52.610;13.244;2022-10-16T10:01:16;3.35;;;1.27;;
41943;SDS011;27636;52.610;13.244;2022-10-16T10:06:21;2.60;;;1.30;;
41943;SDS011;27636;52.610;13.244;2022-10-16T10:11:37;2.80;;;1.27;;
41943;SDS011;27636;52.610;13.244;2022-10-16T10:16:43;2.38;;;1.13;;
41943;SDS011;27636;52.610;13.244;2022-10-16T10:21:47;1.88;;;1.10;;
41943;SDS011;27636;52.610;13.244;2022-10-16T10:26:53;2.38;;;1.10;;
41943;SDS011;27636;52.610;13.244;2022-10-16T10:32:06;3.17;;;1.13;;
41943;SDS011;27636;52.610;13.244;2022-10-16T10:37:24;3.95;;;1.40;;
41943;SDS011;27636;52.610;13.244;2022-10-16T10:42:39;2.30;;;1.20;;
41943;SDS011;27636;52.610;13.244;2022-10-16T10:47:56;1.87;;;1.00;;
41943;SDS011;27636;52.610;13.244;2022-10-16T10:53:25;2.50;;;1.00;;
41943;SDS011;27636;52.610;13.244;2022-10-16T10:58:42;2.35;;;1.20;;
41943;SDS011;27636;52.610;13.244;2022-10-16T11:04:15;2.03;;;1.10;;
41943;SDS011;27636;52.610;13.244;2022-10-16T11:09:38;2.70;;;1.30;;
41943;SDS011;27636;52.610;13.244;2022-10-16T11:14:46;2.53;;;1.23;;
41943;SDS011;27636;52.610;13.244;2022-10-16T11:19:58;1.77;;;1.00;;
41943;SDS011;27636;52.610;13.244;2022-10-16T11:25:11;1.55;;;0.95;;
41943;SDS011;27636;52.610;13.244;2022-10-16T11:30:18;2.35;;;1.10;;
41943;SDS011;27636;52.610;13.244;2022-10-16T11:35:25;6.55;;;1.17;;
41943;SDS011;27636;52.610;13.244;2022-10-16T11:40:42;3.47;;;1.20;;
41943;SDS011;27636;52.610;13.244;2022-10-16T11:45:49;1.10;;;0.88;;
41943;SDS011;27636;52.610;13.244;2022-10-16T11:50:58;1.95;;;0.93;;
41943;SDS011;27636;52.610;13.244;2022-10-16T11:56:08;1.95;;;0.80;;
41943;SDS011;27636;52.610;13.244;2022-10-16T12:01:17;3.33;;;1.02;;
41943;SDS011;27636;52.610;13.244;2022-10-16T12:06:33;1.55;;;0.93;;
41943;SDS011;27636;52.610;13.244;2022-10-16T12:11:40;3.95;;;1.10;;
41943;SDS011;27636;52.610;13.244;2022-10-16T12:16:50;1.73;;;0.80;;
41943;SDS011;27636;52.610;13.244;2022-10-16T12:21:58;3.10;;;0.77;;
41943;SDS011;27636;52.610;13.244;2022-10-16T12:27:04;1.83;;;0.70;;
41943;SDS011;27636;52.610;13.244;2022-10-16T12:32:19;2.15;;;1.00;;
41943;SDS011;27636;52.610;13.244;2022-10-16T12:37:50;1.35;;;0.70;;
41943;SDS011;27636;52.610;13.244;2022-10-16T12:42:54;1.23;;;0.77;;
41943;SDS011;27636;52.610;13.244;2022-10-16T12:47:58;7.93;;;1.30;;
41943;SDS011;27636;52.610;13.244;2022-10-16T12:53:16;1.95;;;0.90;;
41943;SDS011;27636;52.610;13.244;2022-10-16T12:58:26;1.63;;;0.80;;
41943;SDS011;27636;52.610;13.244;2022-10-16T13:09:35;1.05;;;0.80;;
41943;SDS011;27636;52.610;13.244;2022-10-16T13:14:51;1.92;;;0.80;;
41943;SDS011;27636;52.610;13.244;2022-10-16T13:20:24;1.23;;;0.70;;
41943;SDS011;27636;52.610;13.244;2022-10-16T13:25:38;2.40;;;0.80;;
41943;SDS011;27636;52.610;13.244;2022-10-16T13:30:52;2.50;;;0.80;;
41943;SDS011;27636;52.610;13.244;2022-10-16T13:35:57;3.35;;;0.80;;
41943;SDS011;27636;52.610;13.244;2022-10-16T13:41:03;1.30;;;0.68;;
41943;SDS011;27636;52.610;13.244;2022-10-16T13:46:12;2.15;;;0.80;;
41943;SDS011;27636;52.610;13.244;2022-10-16T13:51:17;2.90;;;0.68;;
41943;SDS011;27636;52.610;13.244;2022-10-16T13:57:05;1.70;;;0.77;;
41943;SDS011;27636;52.610;13.244;2022-10-16T14:02:29;1.75;;;0.88;;
41943;SDS011;27636;52.610;13.244;2022-10-16T14:07:39;3.08;;;0.70;;
41943;SDS011;27636;52.610;13.244;2022-10-16T14:12:45;1.27;;;0.65;;
41943;SDS011;27636;52.610;13.244;2022-10-16T14:17:58;1.98;;;0.80;;
41943;SDS011;27636;52.610;13.244;2022-10-16T14:23:02;1.67;;;0.90;;
41943;SDS011;27636;52.610;13.244;2022-10-16T14:28:14;2.15;;;1.00;;
41943;SDS011;27636;52.610;13.244;2022-10-16T14:33:24;2.25;;;0.93;;
41943;SDS011;27636;52.610;13.244;2022-10-16T14:38:33;1.57;;;0.80;;
41943;SDS011;27636;52.610;13.244;2022-10-16T14:43:39;2.85;;;0.93;;
41943;SDS011;27636;52.610;13.244;2022-10-16T14:48:45;1.42;;;0.70;;
41943;SDS011;27636;52.610;13.244;2022-10-16T14:53:50;2.40;;;1.00;;
41943;SDS011;27636;52.610;13.244;2022-10-16T14:59:02;3.60;;;1.27;;
41943;SDS011;27636;52.610;13.244;2022-10-16T15:04:07;2.20;;;1.00;;
41943;SDS011;27636;52.610;13.244;2022-10-16T15:09:11;1.70;;;0.93;;
41943;SDS011;27636;52.610;13.244;2022-10-16T15:14:16;2.45;;;1.00;;
41943;SDS011;27636;52.610;13.244;2022-10-16T15:19:19;1.23;;;0.70;;
41943;SDS011;27636;52.610;13.244;2022-10-16T15:24:22;2.20;;;1.00;;
41943;SDS011;27636;52.610;13.244;2022-10-16T15:29:27;1.70;;;0.93;;
41943;SDS011;27636;52.610;13.244;2022-10-16T15:34:30;3.53;;;1.10;;
41943;SDS011;27636;52.610;13.244;2022-10-16T15:39:33;2.25;;;0.77;;
41943;SDS011;27636;52.610;13.244;2022-10-16T15:44:44;2.17;;;1.10;;
41943;SDS011;27636;52.610;13.244;2022-10-16T15:49:47;1.80;;;0.90;;
41943;SDS011;27636;52.610;13.244;2022-10-16T15:54:50;14.73;;;4.88;;
41943;SDS011;27636;52.610;13.244;2022-10-16T15:59:57;5.70;;;1.83;;
41943;SDS011;27636;52.610;13.244;2022-10-16T16:05:00;5.73;;;1.90;;
41943;SDS011;27636;52.610;13.244;2022-10-16T16:10:05;2.30;;;1.17;;
41943;SDS011;27636;52.610;13.244;2022-10-16T16:20:14;4.83;;;2.10;;
41943;SDS011;27636;52.610;13.244;2022-10-16T16:25:17;4.82;;;1.75;;
41943;SDS011;27636;52.610;13.244;2022-10-16T16:30:22;3.55;;;1.50;;
41943;SDS011;27636;52.610;13.244;2022-10-16T16:50:36;6.53;;;1.30;;
41943;SDS011;27636;52.610;13.244;2022-10-16T16:55:40;3.10;;;1.70;;
41943;SDS011;27636;52.610;13.244;2022-10-16T17:00:44;1.92;;;1.20;;
41943;SDS011;27636;52.610;13.244;2022-10-16T17:16:07;5.40;;;1.98;;
41943;SDS011;27636;52.610;13.244;2022-10-16T17:21:13;6.40;;;2.83;;
41943;SDS011;27636;52.610;13.244;2022-10-16T17:26:16;6.47;;;3.47;;
41943;SDS011;27636;52.610;13.244;2022-10-16T17:31:20;10.73;;;3.90;;
41943;SDS011;27636;52.610;13.244;2022-10-16T17:36:26;10.38;;;4.18;;
41943;SDS011;27636;52.610;13.244;2022-10-16T17:41:33;8.38;;;3.22;;
41943;SDS011;27636;52.610;13.244;2022-10-16T17:46:37;10.25;;;3.25;;
41943;SDS011;27636;52.610;13.244;2022-10-16T17:56:47;5.73;;;2.60;;
41943;SDS011;27636;52.610;13.244;2022-10-16T18:01:51;8.23;;;3.15;;
41943;SDS011;27636;52.610;13.244;2022-10-16T18:06:55;6.63;;;2.80;;
41943;SDS011;27636;52.610;13.244;2022-10-16T18:11:58;5.53;;;2.67;;
41943;SDS011;27636;52.610;13.244;2022-10-16T18:38:33;5.40;;;2.40;;
41943;SDS011;27636;52.610;13.244;2022-10-16T18:48:41;6.60;;;2.45;;
41943;SDS011;27636;52.610;13.244;2022-10-16T18:53:46;10.57;;;3.15;;
41943;SDS011;27636;52.610;13.244;2022-10-16T18:58:51;10.90;;;2.72;;
41943;SDS011;27636;52.610;13.244;2022-10-16T19:03:56;12.17;;;2.97;;
41943;SDS011;27636;52.610;13.244;2022-10-16T19:14:05;10.57;;;3.17;;
41943;SDS011;27636;52.610;13.244;2022-10-16T19:19:10;8.13;;;3.95;;
41943;SDS011;27636;52.610;13.244;2022-10-16T19:24:16;10.63;;;4.18;;
41943;SDS011;27636;52.610;13.244;2022-10-16T19:29:19;19.17;;;5.13;;
41943;SDS011;27636;52.610;13.244;2022-10-16T19:34:22;9.70;;;4.55;;
41943;SDS011;27636;52.610;13.244;2022-10-16T19:39:26;11.43;;;4.50;;
41943;SDS011;27636;52.610;13.244;2022-10-16T19:44:30;10.27;;;4.17;;
41943;SDS011;27636;52.610;13.244;2022-10-16T19:49:34;15.23;;;4.75;;
41943;SDS011;27636;52.610;13.244;2022-10-16T19:54:38;7.15;;;3.38;;
41943;SDS011;27636;52.610;13.244;2022-10-16T19:59:42;7.50;;;3.45;;
41943;SDS011;27636;52.610;13.244;2022-10-16T20:04:47;12.07;;;3.58;;
41943;SDS011;27636;52.610;13.244;2022-10-16T20:09:51;12.30;;;3.60;;
41943;SDS011;27636;52.610;13.244;2022-10-16T20:14:55;11.03;;;3.73;;
41943;SDS011;27636;52.610;13.244;2022-10-16T20:19:58;9.35;;;3.22;;
41943;SDS011;27636;52.610;13.244;2022-10-16T20:25:03;9.70;;;4.13;;
41943;SDS011;27636;52.610;13.244;2022-10-16T20:30:11;8.57;;;3.58;;
41943;SDS011;27636;52.610;13.244;2022-10-16T20:35:14;9.32;;;3.38;;
41943;SDS011;27636;52.610;13.244;2022-10-16T20:40:19;6.40;;;3.40;;
41943;SDS011;27636;52.610;13.244;2022-10-16T20:45:22;9.20;;;3.90;;
41943;SDS011;27636;52.610;13.244;2022-10-16T20:50:27;11.07;;;3.83;;
41943;SDS011;27636;52.610;13.244;2022-10-16T20:55:34;8.02;;;3.50;;
41943;SDS011;27636;52.610;13.244;2022-10-16T21:00:38;9.05;;;3.40;;
41943;SDS011;27636;52.610;13.244;2022-10-16T21:05:41;8.02;;;3.50;;
41943;SDS011;27636;52.610;13.244;2022-10-16T21:10:46;7.10;;;2.80;;
41943;SDS011;27636;52.610;13.244;2022-10-16T21:15:49;7.72;;;3.53;;
41943;SDS011;27636;52.610;13.244;2022-10-16T21:20:52;7.45;;;2.97;;
41943;SDS011;27636;52.610;13.244;2022-10-16T21:25:57;6.18;;;2.60;;
41943;SDS011;27636;52.610;13.244;2022-10-16T21:31:09;8.75;;;3.47;;
41943;SDS011;27636;52.610;13.244;2022-10-16T21:36:14;7.10;;;2.58;;
41943;SDS011;27636;52.610;13.244;2022-10-16T21:41:20;7.65;;;3.10;;
41943;SDS011;27636;52.610;13.244;2022-10-16T21:46:26;9.40;;;2.60;;
41943;SDS011;27636;52.610;13.244;2022-10-16T21:51:30;5.18;;;2.50;;
41943;SDS011;27636;52.610;13.244;2022-10-16T21:56:37;6.97;;;3.05;;
